createdAt,value
2023-05-02T00:02:05.117Z,3.90
2023-05-02T00:04:32.274Z,6.00
2023-05-02T00:06:59.490Z,7.00
2023-05-02T00:09:26.566Z,5.00
2023-05-02T00:11:53.611Z,3.60
2023-05-02T00:14:20.661Z,4.30
2023-05-02T00:16:47.856Z,3.80
2023-05-02T00:19:14.954Z,4.90
2023-05-02T00:21:41.900Z,3.60
2023-05-02T00:24:08.947Z,3.50
2023-05-02T00:26:36.199Z,3.30
2023-05-02T00:29:03.245Z,4.20
2023-05-02T00:31:30.443Z,3.40
2023-05-02T00:33:57.548Z,3.40
2023-05-02T00:36:24.695Z,3.60
2023-05-02T00:38:51.639Z,3.40
2023-05-02T00:41:18.890Z,3.30
2023-05-02T00:43:45.937Z,3.70
2023-05-02T00:46:13.549Z,3.80
2023-05-02T00:48:40.850Z,3.80
2023-05-02T00:51:13.632Z,3.20
2023-05-02T00:53:41.395Z,3.60
2023-05-02T00:56:09.702Z,3.60
2023-05-02T00:58:38.352Z,3.30
2023-05-02T01:01:15.319Z,3.30
2023-05-02T01:03:51.797Z,3.30
2023-05-02T01:06:57.350Z,3.70
2023-05-02T01:09:34.341Z,3.20
2023-05-02T01:12:26.050Z,3.40
2023-05-02T01:14:57.443Z,4.20
2023-05-02T01:17:28.782Z,3.60
2023-05-02T01:19:58.469Z,3.70
2023-05-02T01:22:27.935Z,4.00
2023-05-02T01:24:58.283Z,3.40
2023-05-02T01:27:31.370Z,3.40
2023-05-02T01:29:59.006Z,3.30
2023-05-02T01:32:26.531Z,3.50
2023-05-02T01:34:53.536Z,3.40
2023-05-02T01:37:20.483Z,3.90
2023-05-02T01:39:47.530Z,3.90
2023-05-02T01:42:14.785Z,3.90
2023-05-02T01:44:41.835Z,3.50
2023-05-02T01:47:08.898Z,3.30
2023-05-02T01:49:35.925Z,3.30
2023-05-02T01:52:05.291Z,3.90
2023-05-02T01:54:32.270Z,3.60
2023-05-02T01:56:59.323Z,3.40
2023-05-02T01:59:26.682Z,3.30
2023-05-02T02:01:53.728Z,3.30
2023-05-02T02:04:21.688Z,3.40
2023-05-02T02:06:52.404Z,3.40
2023-05-02T02:09:19.572Z,3.30
2023-05-02T02:11:54.059Z,3.50
2023-05-02T02:14:22.903Z,3.10
2023-05-02T02:16:51.073Z,3.40
2023-05-02T02:19:18.098Z,3.20
2023-05-02T02:21:45.159Z,2.90
2023-05-02T02:24:12.198Z,3.80
2023-05-02T02:26:39.152Z,3.40
2023-05-02T02:29:06.195Z,3.20
2023-05-02T02:31:34.435Z,3.60
2023-05-02T02:34:02.123Z,2.80
2023-05-02T02:36:31.423Z,2.90
2023-05-02T02:39:25.917Z,3.70
2023-05-02T02:42:10.264Z,3.50
2023-05-02T02:45:06.095Z,3.80
2023-05-02T02:47:44.628Z,3.40
2023-05-02T02:50:25.364Z,2.80
2023-05-02T02:52:56.359Z,3.30
2023-05-02T02:55:44.556Z,2.90
2023-05-02T02:58:14.874Z,3.20
2023-05-02T03:00:42.122Z,3.70
2023-05-02T03:03:09.229Z,3.50
2023-05-02T03:05:36.323Z,3.10
2023-05-02T03:08:03.371Z,3.80
2023-05-02T03:10:30.626Z,3.00
2023-05-02T03:12:57.977Z,3.00
2023-05-02T03:15:31.680Z,3.00
2023-05-02T03:17:59.559Z,2.80
2023-05-02T03:20:26.717Z,3.10
2023-05-02T03:22:53.951Z,3.60
2023-05-02T03:25:20.993Z,3.80
2023-05-02T03:27:48.812Z,3.20
2023-05-02T03:30:16.109Z,3.70
2023-05-02T03:32:43.416Z,4.00
2023-05-02T03:35:10.817Z,4.40
2023-05-02T03:37:38.889Z,3.90
2023-05-02T03:40:07.061Z,4.00
2023-05-02T03:42:41.482Z,3.80
2023-05-02T03:45:14.261Z,4.10
2023-05-02T03:47:41.850Z,4.20
2023-05-02T03:50:09.590Z,4.60
2023-05-02T03:52:36.943Z,4.50
2023-05-02T03:55:04.705Z,4.70
2023-05-02T03:57:31.751Z,3.50
2023-05-02T03:59:59.266Z,3.60
2023-05-02T04:02:28.106Z,3.90
2023-05-02T04:04:55.405Z,3.30
2023-05-02T04:07:25.886Z,3.00
2023-05-02T04:10:03.370Z,3.10
2023-05-02T04:12:35.235Z,3.00
2023-05-02T04:15:02.685Z,3.40
2023-05-02T04:17:30.501Z,2.90
2023-05-02T04:19:57.559Z,2.60
2023-05-02T04:22:26.904Z,2.80
2023-05-02T04:24:58.045Z,2.80
2023-05-02T04:27:26.216Z,2.50
2023-05-02T04:29:56.750Z,3.00
2023-05-02T04:32:23.857Z,2.80
2023-05-02T04:34:52.062Z,2.60
2023-05-02T04:37:21.116Z,3.50
2023-05-02T04:39:49.362Z,2.40
2023-05-02T04:42:20.070Z,2.30
2023-05-02T04:44:55.204Z,1.90
2023-05-02T04:47:22.320Z,2.00
2023-05-02T04:49:49.498Z,2.20
2023-05-02T04:52:16.557Z,2.10
2023-05-02T04:54:44.514Z,2.00
2023-05-02T04:57:11.972Z,1.80
2023-05-02T04:59:43.322Z,1.90
2023-05-02T05:02:12.949Z,2.10
2023-05-02T05:04:40.597Z,2.00
2023-05-02T05:07:07.883Z,1.90
2023-05-02T05:09:35.148Z,1.80
2023-05-02T05:12:02.261Z,1.80
2023-05-02T05:14:31.645Z,2.40
2023-05-02T05:16:59.547Z,1.70
2023-05-02T05:19:27.066Z,1.70
2023-05-02T05:21:54.332Z,1.80
2023-05-02T05:24:21.890Z,2.10
2023-05-02T05:26:50.054Z,2.00
2023-05-02T05:29:18.497Z,1.70
2023-05-02T05:31:46.145Z,1.90
2023-05-02T05:34:15.746Z,1.50
2023-05-02T05:36:43.669Z,1.90
2023-05-02T05:39:11.023Z,1.80
2023-05-02T05:41:39.914Z,1.90
2023-05-02T05:44:09.415Z,1.80
2023-05-02T05:46:36.434Z,2.10
2023-05-02T05:49:04.438Z,1.60
2023-05-02T05:51:32.500Z,1.90
2023-05-02T05:54:00.687Z,2.00
2023-05-02T05:56:28.338Z,2.00
2023-05-02T05:59:05.115Z,1.80
2023-05-02T06:01:32.475Z,1.80
2023-05-02T06:04:00.327Z,2.20
2023-05-02T06:06:27.758Z,2.20
2023-05-02T06:08:54.956Z,1.60
2023-05-02T06:11:22.822Z,1.90
2023-05-02T06:13:50.064Z,1.50
2023-05-02T06:16:18.978Z,1.80
2023-05-02T06:18:46.713Z,1.90
2023-05-02T06:21:14.276Z,1.30
2023-05-02T06:23:41.247Z,2.10
2023-05-02T06:26:08.372Z,1.90
2023-05-02T06:28:35.533Z,1.90
2023-05-02T06:31:06.243Z,1.90
2023-05-02T06:33:34.176Z,1.90
2023-05-02T06:36:02.414Z,2.30
2023-05-02T06:38:29.781Z,2.00
2023-05-02T06:40:56.799Z,1.60
2023-05-02T06:43:23.953Z,1.60
2023-05-02T06:45:55.083Z,1.70
2023-05-02T06:48:22.538Z,1.50
2023-05-02T06:50:49.892Z,1.90
2023-05-02T06:53:17.037Z,1.50
2023-05-02T06:55:45.221Z,1.70
2023-05-02T06:58:12.279Z,1.60
2023-05-02T07:00:39.236Z,1.30
2023-05-02T07:03:06.445Z,1.40
2023-05-02T07:05:33.506Z,1.50
2023-05-02T07:08:00.484Z,1.70
2023-05-02T07:10:27.492Z,1.60
2023-05-02T07:12:54.541Z,1.90
2023-05-02T07:15:21.483Z,1.40
2023-05-02T07:17:49.742Z,1.40
2023-05-02T07:20:16.924Z,1.20
2023-05-02T07:22:43.957Z,1.10
2023-05-02T07:25:11.359Z,1.40
2023-05-02T07:27:38.469Z,1.50
2023-05-02T07:30:06.878Z,1.30
2023-05-02T07:32:34.065Z,1.00
2023-05-02T07:35:01.979Z,1.10
2023-05-02T07:37:34.213Z,1.20
2023-05-02T07:40:01.988Z,1.00
2023-05-02T07:42:32.528Z,1.20
2023-05-02T07:44:59.923Z,1.00
2023-05-02T07:47:27.370Z,0.50
2023-05-02T07:49:54.583Z,1.00
2023-05-02T07:52:21.835Z,0.80
2023-05-02T07:54:49.918Z,0.90
2023-05-02T07:57:17.478Z,0.90
2023-05-02T07:59:44.514Z,0.90
2023-05-02T08:02:14.034Z,0.90
2023-05-02T08:04:41.472Z,0.60
2023-05-02T08:07:08.616Z,0.80
2023-05-02T08:09:35.567Z,0.80
2023-05-02T08:12:03.594Z,0.80
2023-05-02T08:14:30.896Z,0.80
2023-05-02T08:16:58.764Z,0.90
2023-05-02T08:19:25.912Z,0.70
2023-05-02T08:21:56.241Z,0.80
2023-05-02T08:24:23.483Z,0.80
2023-05-02T08:26:51.035Z,0.50
2023-05-02T08:29:18.096Z,0.80
2023-05-02T08:31:45.137Z,0.80
2023-05-02T08:34:12.381Z,0.90
2023-05-02T08:36:39.440Z,1.10
2023-05-02T08:39:08.425Z,1.00
2023-05-02T08:41:35.910Z,1.00
2023-05-02T08:44:03.190Z,1.10
2023-05-02T08:46:30.431Z,0.80
2023-05-02T08:48:59.335Z,1.20
2023-05-02T08:51:29.364Z,1.00
2023-05-02T08:53:56.746Z,0.60
2023-05-02T08:56:23.694Z,0.80
2023-05-02T08:58:51.242Z,0.50
2023-05-02T09:01:21.528Z,0.90
2023-05-02T09:03:49.156Z,0.70
2023-05-02T09:06:17.661Z,1.00
2023-05-02T09:08:46.399Z,0.80
2023-05-02T09:11:13.689Z,1.30
2023-05-02T09:13:42.287Z,0.60
2023-05-02T09:16:13.048Z,1.10
2023-05-02T09:18:45.717Z,0.60
2023-05-02T09:21:16.685Z,0.80
2023-05-02T09:23:46.906Z,0.80
2023-05-02T09:26:21.636Z,0.80
2023-05-02T09:28:53.295Z,1.00
2023-05-02T09:31:49.623Z,0.50
2023-05-02T09:34:17.518Z,0.70
2023-05-02T09:36:46.688Z,0.80
2023-05-02T09:39:15.894Z,0.60
2023-05-02T09:41:43.857Z,0.70
2023-05-02T09:44:12.564Z,0.90
2023-05-02T09:46:43.814Z,0.70
2023-05-02T09:49:10.925Z,0.90
2023-05-02T09:51:38.078Z,0.70
2023-05-02T09:54:05.237Z,1.10
2023-05-02T09:56:32.493Z,1.10
2023-05-02T09:59:15.414Z,0.80
2023-05-02T10:01:42.562Z,1.00
2023-05-02T10:04:17.088Z,0.80
2023-05-02T10:06:44.935Z,0.60
2023-05-02T10:09:15.404Z,0.80
2023-05-02T10:11:45.687Z,0.80
2023-05-02T10:14:12.979Z,1.20
2023-05-02T10:17:01.801Z,0.90
2023-05-02T10:19:39.403Z,0.60
2023-05-02T10:22:06.556Z,1.10
2023-05-02T10:24:34.010Z,0.60
2023-05-02T10:29:32.468Z,0.60
2023-05-02T10:32:01.123Z,0.70
2023-05-02T10:34:28.234Z,0.40
2023-05-02T10:36:56.711Z,0.90
2023-05-02T10:39:25.089Z,0.80
2023-05-02T10:41:53.049Z,0.60
2023-05-02T10:44:35.979Z,0.90
2023-05-02T10:47:21.991Z,0.80
2023-05-02T10:49:55.982Z,1.00
2023-05-02T10:52:26.820Z,0.90
2023-05-02T10:55:23.459Z,0.80
2023-05-02T11:00:35.989Z,0.70
2023-05-02T11:03:04.010Z,0.70
2023-05-02T11:05:31.397Z,0.80
2023-05-02T11:08:19.325Z,1.00
2023-05-02T11:10:48.230Z,0.90
2023-05-02T11:13:16.019Z,0.60
2023-05-02T11:15:43.034Z,1.10
2023-05-02T11:18:14.071Z,0.90
2023-05-02T11:20:42.039Z,0.60
2023-05-02T11:23:21.749Z,0.80
2023-05-02T11:25:49.582Z,0.60
2023-05-02T11:28:38.821Z,0.70
2023-05-02T11:31:06.802Z,0.90
2023-05-02T11:33:34.447Z,0.50
2023-05-02T11:36:01.622Z,0.50
2023-05-02T11:38:36.785Z,1.00
2023-05-02T11:41:04.638Z,0.90
2023-05-02T11:43:32.538Z,1.00
2023-05-02T11:46:01.732Z,0.60
2023-05-02T11:48:29.134Z,0.80
2023-05-02T11:50:58.109Z,0.70
2023-05-02T11:53:26.391Z,0.80
2023-05-02T11:55:55.542Z,0.60
2023-05-02T11:58:24.095Z,1.00
2023-05-02T12:00:52.137Z,0.60
2023-05-02T12:03:29.787Z,0.50
2023-05-02T12:05:57.859Z,0.60
2023-05-02T12:08:27.981Z,0.70
2023-05-02T12:10:55.906Z,0.70
2023-05-02T12:13:24.472Z,0.70
2023-05-02T12:15:52.300Z,0.90
2023-05-02T12:18:22.037Z,0.90
2023-05-02T12:20:49.401Z,0.60
2023-05-02T12:23:16.370Z,0.80
2023-05-02T12:25:43.407Z,0.70
2023-05-02T12:28:10.646Z,2.00
2023-05-02T12:30:41.693Z,0.90
2023-05-02T12:33:08.799Z,1.40
2023-05-02T12:35:36.820Z,1.00
2023-05-02T12:38:16.442Z,1.00
2023-05-02T12:40:53.629Z,0.80
2023-05-02T12:43:22.289Z,1.00
2023-05-02T12:45:50.039Z,0.90
2023-05-02T12:48:28.586Z,0.70
2023-05-02T12:50:55.666Z,0.70
2023-05-02T12:53:43.526Z,0.90
2023-05-02T12:56:11.153Z,0.50
2023-05-02T12:58:43.189Z,1.40
2023-05-02T13:01:11.092Z,1.60
2023-05-02T13:03:38.247Z,1.40
2023-05-02T13:06:05.993Z,1.10
2023-05-02T13:08:34.360Z,1.00
2023-05-02T13:11:03.030Z,1.20
2023-05-02T13:13:30.905Z,1.80
2023-05-02T13:15:57.954Z,1.60
2023-05-02T13:18:25.250Z,1.20
2023-05-02T13:20:52.352Z,1.20
2023-05-02T13:23:19.406Z,1.40
2023-05-02T13:25:46.342Z,1.20
2023-05-02T13:28:13.293Z,1.00
2023-05-02T13:30:40.679Z,1.20
2023-05-02T13:33:09.401Z,1.20
2023-05-02T13:35:36.594Z,1.00
2023-05-02T13:38:03.957Z,1.10
2023-05-02T13:40:31.091Z,1.30
2023-05-02T13:42:58.143Z,1.60
2023-05-02T13:45:25.069Z,1.00
2023-05-02T13:47:52.077Z,1.20
2023-05-02T13:50:19.270Z,1.10
2023-05-02T13:52:48.393Z,1.40
2023-05-02T13:55:16.129Z,1.00
2023-05-02T13:57:43.782Z,1.00
2023-05-02T14:00:11.626Z,1.40
2023-05-02T14:02:39.303Z,1.20
2023-05-02T14:05:07.257Z,1.60
2023-05-02T14:07:34.227Z,1.10
2023-05-02T14:10:01.510Z,1.00
2023-05-02T14:12:28.833Z,1.10
2023-05-02T14:14:55.897Z,1.20
2023-05-02T14:17:25.314Z,1.50
2023-05-02T14:19:52.562Z,0.90
2023-05-02T14:22:19.711Z,0.90
2023-05-02T14:24:46.939Z,0.90
2023-05-02T14:27:18.360Z,1.10
2023-05-02T14:29:46.245Z,1.00
2023-05-02T14:32:13.704Z,1.00
2023-05-02T14:34:41.761Z,1.00
2023-05-02T14:37:09.384Z,1.20
2023-05-02T14:39:37.063Z,0.90
2023-05-02T14:42:04.683Z,1.20
2023-05-02T14:44:32.221Z,1.00
2023-05-02T14:46:59.614Z,1.00
2023-05-02T14:49:27.445Z,1.30
2023-05-02T14:51:56.280Z,1.10
2023-05-02T14:54:31.056Z,1.30
2023-05-02T14:56:59.952Z,1.30
2023-05-02T14:59:30.777Z,1.40
2023-05-02T15:01:58.169Z,1.40
2023-05-02T15:04:27.430Z,1.50
2023-05-02T15:06:55.669Z,1.40
2023-05-02T15:09:23.571Z,1.20
2023-05-02T15:11:50.619Z,1.40
2023-05-02T15:14:17.503Z,1.30
2023-05-02T15:16:45.020Z,1.10
2023-05-02T15:19:12.169Z,1.20
2023-05-02T15:21:39.217Z,1.20
2023-05-02T15:24:06.602Z,4.10
2023-05-02T15:26:34.023Z,5.60
2023-05-02T15:29:01.202Z,1.30
2023-05-02T15:31:28.562Z,1.40
2023-05-02T15:33:55.899Z,1.00
2023-05-02T15:36:27.023Z,1.40
2023-05-02T15:38:53.976Z,1.30
2023-05-02T15:41:21.134Z,1.10
2023-05-02T15:43:48.167Z,1.10
2023-05-02T15:46:16.457Z,1.30
2023-05-02T15:48:43.698Z,1.20
2023-05-02T15:51:10.950Z,1.20
2023-05-02T15:53:42.401Z,1.50
2023-05-02T15:56:09.957Z,1.30
2023-05-02T15:58:37.106Z,1.40
2023-05-02T16:01:04.412Z,1.20
2023-05-02T16:03:32.223Z,1.20
2023-05-02T16:05:59.649Z,1.30
2023-05-02T16:08:29.695Z,1.30
2023-05-02T16:10:58.016Z,1.10
2023-05-02T16:13:25.017Z,1.50
2023-05-02T16:15:52.807Z,1.40
2023-05-02T16:18:19.931Z,1.20
2023-05-02T16:20:47.997Z,1.80
2023-05-02T16:23:14.941Z,1.20
2023-05-02T16:25:41.884Z,1.70
2023-05-02T16:28:09.041Z,1.10
2023-05-02T16:30:37.438Z,1.20
2023-05-02T16:33:04.732Z,1.30
2023-05-02T16:35:32.128Z,1.20
2023-05-02T16:37:59.065Z,1.60
2023-05-02T16:40:28.223Z,1.40
2023-05-02T16:42:55.675Z,1.50
2023-05-02T16:45:22.974Z,1.30
2023-05-02T16:47:50.067Z,1.50
2023-05-02T16:50:17.274Z,1.80
2023-05-02T16:52:44.736Z,1.00
2023-05-02T16:55:12.385Z,1.50
2023-05-02T16:57:39.542Z,2.60
2023-05-02T17:00:10.507Z,1.60
2023-05-02T17:02:37.526Z,1.50
2023-05-02T17:05:05.184Z,4.90
2023-05-02T17:07:32.431Z,3.60
2023-05-02T17:09:59.648Z,2.10
2023-05-02T17:12:27.450Z,1.60
2023-05-02T17:14:54.724Z,1.50
2023-05-02T17:17:23.693Z,1.40
2023-05-02T17:19:51.050Z,1.10
2023-05-02T17:22:19.142Z,1.40
2023-05-02T17:24:48.738Z,1.70
2023-05-02T17:27:15.712Z,1.40
2023-05-02T17:29:42.820Z,1.80
2023-05-02T17:32:11.407Z,1.80
2023-05-02T17:34:38.965Z,1.60
2023-05-02T17:37:07.464Z,1.70
2023-05-02T17:39:34.499Z,1.60
2023-05-02T17:42:01.742Z,1.80
2023-05-02T17:44:31.582Z,1.90
2023-05-02T17:46:58.702Z,2.50
2023-05-02T17:49:26.066Z,2.00
2023-05-02T17:51:53.094Z,8.90
2023-05-02T17:54:20.659Z,6.90
2023-05-02T17:56:47.601Z,4.30
2023-05-02T17:59:15.374Z,4.30
2023-05-02T18:01:42.633Z,3.10
2023-05-02T18:04:12.935Z,2.40
2023-05-02T18:06:41.266Z,2.00
2023-05-02T18:09:09.080Z,1.90
2023-05-02T18:11:40.127Z,2.10
2023-05-02T18:14:07.392Z,1.60
2023-05-02T18:16:36.387Z,1.80
2023-05-02T18:19:03.726Z,1.50
2023-05-02T18:21:34.052Z,1.30
2023-05-02T18:24:01.094Z,1.60
2023-05-02T18:26:28.653Z,1.90
2023-05-02T18:28:55.706Z,2.10
2023-05-02T18:31:24.109Z,2.20
2023-05-02T18:33:52.996Z,1.80
2023-05-02T18:36:28.787Z,1.60
2023-05-02T18:38:56.496Z,2.00
2023-05-02T18:41:24.041Z,2.00
2023-05-02T18:43:51.185Z,2.00
2023-05-02T18:46:18.179Z,2.10
2023-05-02T18:48:45.485Z,2.10
2023-05-02T18:51:12.532Z,2.00
2023-05-02T18:53:39.576Z,3.00
2023-05-02T18:56:14.591Z,2.20
2023-05-02T18:58:42.377Z,2.30
2023-05-02T19:01:16.079Z,1.80
2023-05-02T19:03:44.018Z,2.50
2023-05-02T19:06:11.452Z,2.70
2023-05-02T19:08:40.436Z,2.80
2023-05-02T19:11:07.689Z,2.40
2023-05-02T19:13:34.701Z,2.70
2023-05-02T19:16:01.782Z,2.10
2023-05-02T19:18:28.800Z,2.00
2023-05-02T19:20:56.060Z,2.10
2023-05-02T19:23:23.396Z,1.60
2023-05-02T19:25:50.553Z,1.90
2023-05-02T19:28:17.604Z,1.80
2023-05-02T19:30:44.838Z,2.20
2023-05-02T19:33:12.039Z,2.70
2023-05-02T19:35:39.625Z,2.10
2023-05-02T19:38:06.709Z,2.50
2023-05-02T19:40:33.744Z,2.20
2023-05-02T19:43:00.901Z,1.60
2023-05-02T19:45:27.938Z,1.90
2023-05-02T19:47:55.072Z,2.10
2023-05-02T19:50:22.135Z,1.90
2023-05-02T19:52:50.844Z,2.40
2023-05-02T19:55:18.731Z,1.80
2023-05-02T19:57:45.842Z,1.80
2023-05-02T20:00:14.273Z,2.20
2023-05-02T20:02:41.534Z,1.90
2023-05-02T20:05:09.199Z,2.40
2023-05-02T20:07:36.381Z,2.60
2023-05-02T20:10:03.963Z,3.00
2023-05-02T20:12:31.307Z,3.10
2023-05-02T20:14:58.336Z,3.10
2023-05-02T20:17:25.814Z,2.70
2023-05-02T20:19:52.942Z,2.60
2023-05-02T20:22:20.032Z,2.70
2023-05-02T20:24:47.034Z,3.00
2023-05-02T20:27:14.081Z,3.00
2023-05-02T20:29:41.133Z,2.50
2023-05-02T20:32:08.584Z,2.90
2023-05-02T20:34:35.845Z,3.50
2023-05-02T20:37:05.464Z,3.60
2023-05-02T20:39:32.702Z,4.00
2023-05-02T20:41:59.739Z,3.50
2023-05-02T20:44:28.671Z,3.80
2023-05-02T20:46:55.996Z,4.30
2023-05-02T20:49:22.928Z,4.20
2023-05-02T20:51:50.794Z,3.10
2023-05-02T20:54:20.917Z,4.20
2023-05-02T20:56:47.969Z,4.30
2023-05-02T20:59:15.010Z,3.90
2023-05-02T21:01:41.993Z,2.90
2023-05-02T21:04:09.166Z,3.60
2023-05-02T21:06:36.493Z,3.90
2023-05-02T21:09:04.019Z,3.60
2023-05-02T21:11:31.727Z,2.70
2023-05-02T21:13:58.724Z,3.70
2023-05-02T21:16:25.875Z,3.10
2023-05-02T21:18:53.847Z,3.80
2023-05-02T21:21:20.893Z,3.30
2023-05-02T21:23:47.840Z,2.70
2023-05-02T21:26:14.789Z,2.90
2023-05-02T21:28:42.034Z,2.90
2023-05-02T21:31:09.177Z,3.40
2023-05-02T21:33:36.436Z,2.70
2023-05-02T21:36:03.581Z,14.00
2023-05-02T21:38:30.624Z,10.40
2023-05-02T21:41:04.325Z,3.50
2023-05-02T21:43:34.634Z,2.60
2023-05-02T21:46:01.907Z,3.90
2023-05-02T21:48:28.848Z,13.50
2023-05-02T21:50:55.792Z,8.00
2023-05-02T21:53:22.839Z,6.80
2023-05-02T21:55:49.888Z,6.70
2023-05-02T21:58:16.941Z,3.10
2023-05-02T22:00:43.942Z,3.20
2023-05-02T22:03:12.135Z,3.20
2023-05-02T22:05:42.680Z,2.90
2023-05-02T22:08:11.237Z,2.60
2023-05-02T22:10:39.450Z,3.30
2023-05-02T22:13:09.602Z,2.80
2023-05-02T22:15:36.909Z,2.60
2023-05-02T22:18:06.933Z,2.90
2023-05-02T22:20:34.117Z,3.60
2023-05-02T22:23:01.120Z,3.10
2023-05-02T22:25:28.063Z,3.10
2023-05-02T22:27:55.029Z,2.70
2023-05-02T22:30:22.365Z,3.20
2023-05-02T22:32:49.324Z,2.70
2023-05-02T22:35:16.868Z,2.70
2023-05-02T22:37:43.914Z,2.90
2023-05-02T22:40:12.876Z,2.50
2023-05-02T22:42:39.958Z,2.70
2023-05-02T22:47:51.493Z,2.90
2023-05-02T22:50:20.036Z,3.20
2023-05-02T22:52:49.401Z,3.10
2023-05-02T22:55:16.517Z,2.60
2023-05-02T22:57:43.948Z,3.10
2023-05-02T23:00:12.445Z,2.70
2023-05-02T23:02:40.020Z,2.50
2023-05-02T23:05:07.852Z,2.80
2023-05-02T23:07:34.895Z,2.70
2023-05-02T23:10:02.158Z,2.70
2023-05-02T23:12:29.291Z,2.40
2023-05-02T23:14:57.059Z,2.70
2023-05-02T23:17:24.153Z,2.20
2023-05-02T23:19:51.265Z,2.10
2023-05-02T23:22:18.297Z,2.40
2023-05-02T23:24:46.930Z,2.20
2023-05-02T23:27:14.133Z,2.80
2023-05-02T23:29:41.177Z,2.40
2023-05-02T23:32:08.538Z,2.40
2023-05-02T23:34:38.446Z,2.20
2023-05-02T23:37:06.943Z,1.80
2023-05-02T23:39:34.076Z,2.40
2023-05-02T23:42:03.954Z,2.20
2023-05-02T23:44:31.573Z,2.30
2023-05-02T23:46:59.648Z,2.30
2023-05-02T23:49:26.983Z,1.80
2023-05-02T23:51:54.372Z,1.90
2023-05-02T23:54:21.406Z,2.50
2023-05-02T23:56:48.425Z,2.10
2023-05-02T23:59:15.474Z,2.10
